Time;durP1;ratioP1;P1;durP2;ratioP2;P2;SDS_P1;SDS_P2;PMS_P1;PMS_P2;Temp;Humidity;BMP_temperature;BMP_pressure;BME280_temperature;BME280_humidity;BME280_pressure;Samples;Min_cycle;Max_cycle;Signal;HPM_P1;HPM_P2
2023/04/11 00:02:03;;;;;;;10.00;5.05;;;9.50;99.90;;;;;;5032222;28;20030;-72
2023/04/11 00:04:29;;;;;;;10.23;4.63;;;9.50;99.90;;;;;;5033359;28;20116;-73
2023/04/11 00:06:55;;;;;;;11.68;4.15;;;9.50;99.90;;;;;;5033168;28;20022;-72
2023/04/11 00:09:21;;;;;;;12.65;4.47;;;9.50;99.90;;;;;;5032118;28;20081;-73
2023/04/11 00:11:46;;;;;;;9.98;5.18;;;9.50;99.90;;;;;;5032571;28;20037;-71
2023/04/11 00:14:14;;;;;;;9.48;5.65;;;9.50;99.90;;;;;;5032869;28;20021;-70
2023/04/11 00:16:42;;;;;;;11.05;5.38;;;9.50;99.90;;;;;;5032347;28;20113;-72
2023/04/11 00:19:08;;;;;;;11.35;4.75;;;9.50;99.90;;;;;;5032945;28;20030;-73
2023/04/11 00:21:38;;;;;;;10.25;5.40;;;9.50;99.90;;;;;;5031950;28;20028;-72
2023/04/11 00:24:06;;;;;;;10.60;5.22;;;9.40;99.90;;;;;;5031485;28;20091;-72
2023/04/11 00:26:31;;;;;;;8.73;4.97;;;9.40;99.90;;;;;;5032718;28;20105;-71
2023/04/11 00:28:57;;;;;;;11.43;5.40;;;9.40;99.90;;;;;;5031650;28;20060;-74
2023/04/11 00:31:23;;;;;;;10.73;5.53;;;9.40;99.90;;;;;;5031433;28;20037;-73
2023/04/11 00:33:48;;;;;;;10.13;5.35;;;9.40;99.90;;;;;;5032747;28;20030;-73
2023/04/11 00:36:15;;;;;;;9.48;4.88;;;9.40;99.90;;;;;;5032550;28;20026;-72
2023/04/11 00:38:41;;;;;;;9.15;5.18;;;9.40;99.90;;;;;;5032532;28;20079;-72
2023/04/11 00:41:07;;;;;;;10.98;5.57;;;9.40;99.90;;;;;;5032672;28;20078;-73
2023/04/11 00:43:32;;;;;;;11.10;6.22;;;9.40;99.90;;;;;;5031945;28;20022;-73
2023/04/11 00:45:58;;;;;;;10.25;5.28;;;9.40;99.90;;;;;;5032731;28;20052;-73
2023/04/11 00:48:27;;;;;;;11.55;5.38;;;9.30;99.90;;;;;;5031561;28;20021;-73
2023/04/11 00:50:53;;;;;;;9.57;5.28;;;9.40;99.90;;;;;;5032198;28;20021;-72
2023/04/11 00:53:19;;;;;;;13.82;6.03;;;9.40;99.90;;;;;;5031052;28;20041;-74
2023/04/11 00:55:45;;;;;;;10.63;5.50;;;9.40;99.90;;;;;;5029827;28;20505;-74
2023/04/11 00:58:11;;;;;;;11.45;5.65;;;9.40;99.90;;;;;;5032442;28;20463;-73
2023/04/11 01:00:37;;;;;;;10.20;5.53;;;9.30;99.90;;;;;;5032138;28;20060;-70
2023/04/11 01:03:03;;;;;;;9.70;5.35;;;9.30;99.90;;;;;;5032283;28;20022;-74
2023/04/11 01:05:32;;;;;;;9.85;5.20;;;9.30;99.90;;;;;;5032158;28;20071;-71
2023/04/11 01:07:58;;;;;;;9.38;5.95;;;9.30;99.90;;;;;;5030478;28;20029;-71
2023/04/11 01:10:27;;;;;;;9.27;5.38;;;9.30;99.90;;;;;;5032362;28;20030;-71
2023/04/11 01:12:54;;;;;;;10.68;5.78;;;9.30;99.90;;;;;;5032366;28;20406;-70
2023/04/11 01:15:20;;;;;;;12.52;6.05;;;9.20;99.90;;;;;;5029920;28;20422;-71
2023/04/11 01:17:46;;;;;;;13.02;5.25;;;9.20;99.90;;;;;;5031030;28;20025;-70
2023/04/11 01:20:13;;;;;;;9.73;5.53;;;9.20;99.90;;;;;;5029764;28;20485;-71
2023/04/11 01:22:40;;;;;;;13.40;6.63;;;9.20;99.90;;;;;;5030455;28;20025;-71
2023/04/11 01:25:06;;;;;;;11.30;5.90;;;9.10;99.90;;;;;;5029513;28;20025;-72
2023/04/11 01:27:33;;;;;;;12.73;6.13;;;9.10;99.90;;;;;;5030710;28;20108;-72
2023/04/11 01:29:59;;;;;;;13.55;6.85;;;9.10;99.90;;;;;;5030456;28;20020;-72
2023/04/11 01:32:25;;;;;;;15.70;6.53;;;9.10;99.90;;;;;;5030930;28;20065;-71
2023/04/11 01:34:54;;;;;;;18.48;7.63;;;9.10;99.90;;;;;;5029186;28;20029;-69
2023/04/11 01:37:20;;;;;;;10.32;3.05;;;9.20;99.90;;;;;;5029530;28;20042;-71
2023/04/11 01:39:46;;;;;;;6.55;2.00;;;9.10;99.90;;;;;;5030029;28;20036;-68
2023/04/11 01:42:12;;;;;;;7.35;1.98;;;8.80;99.90;;;;;;5030449;28;20018;-67
2023/04/11 01:44:38;;;;;;;7.50;1.50;;;8.50;99.90;;;;;;5031032;28;20163;-68
2023/04/11 01:47:03;;;;;;;6.45;1.50;;;8.30;99.90;;;;;;5029906;28;20034;-68
2023/04/11 01:49:30;;;;;;;6.38;1.40;;;8.20;99.90;;;;;;5029387;28;20029;-68
2023/04/11 01:51:55;;;;;;;4.70;1.77;;;8.00;99.90;;;;;;5030377;28;20026;-69
2023/04/11 01:54:21;;;;;;;6.75;1.45;;;7.90;99.90;;;;;;5030799;28;20080;-67
2023/04/11 01:56:47;;;;;;;4.68;1.52;;;7.80;99.90;;;;;;5030312;28;20454;-67
2023/04/11 01:59:12;;;;;;;4.28;1.60;;;7.80;99.90;;;;;;5030499;28;20032;-68
2023/04/11 02:01:41;;;;;;;4.70;1.73;;;7.70;99.90;;;;;;5030105;28;20022;-68
2023/04/11 02:04:06;;;;;;;4.03;1.67;;;7.70;99.90;;;;;;5030136;28;20017;-66
2023/04/11 02:06:32;;;;;;;6.35;2.05;;;7.60;99.90;;;;;;5030460;28;20029;-68
2023/04/11 02:08:57;;;;;;;8.65;2.08;;;7.60;99.90;;;;;;5029200;28;20049;-68
2023/04/11 02:11:23;;;;;;;5.78;1.80;;;7.60;99.90;;;;;;5030275;28;20033;-70
2023/04/11 02:13:49;;;;;;;6.65;1.77;;;7.60;99.90;;;;;;5028830;28;20026;-70
2023/04/11 02:16:14;;;;;;;5.93;2.17;;;7.50;99.90;;;;;;5029925;28;20029;-67
2023/04/11 02:18:41;;;;;;;7.90;2.20;;;7.60;99.90;;;;;;5029312;28;20057;-68
2023/04/11 02:21:07;;;;;;;7.10;2.38;;;7.50;99.90;;;;;;5030399;28;20048;-68
2023/04/11 02:23:33;;;;;;;7.60;2.50;;;7.50;99.90;;;;;;5029732;28;20038;-69
2023/04/11 02:26:00;;;;;;;9.45;2.28;;;7.50;99.90;;;;;;5029661;28;20018;-69
2023/04/11 02:28:25;;;;;;;9.32;2.38;;;7.50;99.90;;;;;;5029489;28;20048;-69
2023/04/11 02:30:51;;;;;;;7.05;2.28;;;7.40;99.90;;;;;;5028837;28;20034;-68
2023/04/11 02:33:18;;;;;;;9.07;2.08;;;7.40;99.90;;;;;;5028003;28;20036;-68
2023/04/11 02:35:44;;;;;;;5.57;2.22;;;7.40;99.90;;;;;;5029999;28;20022;-69
2023/04/11 02:38:10;;;;;;;6.72;2.30;;;7.40;99.90;;;;;;5029301;28;20030;-69
2023/04/11 02:40:35;;;;;;;5.47;2.50;;;7.40;99.90;;;;;;5029747;28;20110;-68
2023/04/11 02:43:01;;;;;;;8.55;1.90;;;7.30;99.90;;;;;;5030328;28;20045;-69
2023/04/11 02:45:27;;;;;;;8.27;2.13;;;7.30;99.90;;;;;;5030135;28;20078;-71
2023/04/11 02:47:52;;;;;;;6.95;1.67;;;7.30;99.90;;;;;;5032272;28;20112;-70
2023/04/11 02:50:18;;;;;;;7.82;1.92;;;7.20;99.90;;;;;;5032745;28;20060;-69
2023/04/11 02:52:44;;;;;;;6.00;1.70;;;7.20;99.90;;;;;;5031574;28;20048;-70
2023/04/11 02:55:10;;;;;;;4.72;1.60;;;7.20;99.90;;;;;;5033511;28;20024;-72
2023/04/11 02:57:35;;;;;;;4.32;1.77;;;7.10;99.90;;;;;;5033429;28;20029;-71
2023/04/11 03:00:05;;;;;;;6.65;1.80;;;7.10;99.90;;;;;;5033682;28;20155;-71
2023/04/11 03:02:31;;;;;;;10.02;1.70;;;7.00;99.90;;;;;;5033039;28;20018;-71
2023/04/11 03:04:57;;;;;;;4.65;1.25;;;6.90;99.90;;;;;;5032001;28;20044;-71
2023/04/11 03:07:23;;;;;;;4.75;1.75;;;6.90;99.90;;;;;;5033420;28;20018;-72
2023/04/11 03:09:49;;;;;;;5.60;1.35;;;7.00;99.90;;;;;;5033356;28;20458;-73
2023/04/11 03:12:15;;;;;;;4.35;1.27;;;7.00;99.90;;;;;;5033192;28;20068;-71
2023/04/11 03:14:40;;;;;;;6.57;1.90;;;6.90;99.90;;;;;;5032605;28;20034;-74
2023/04/11 03:17:06;;;;;;;6.25;1.70;;;6.90;99.90;;;;;;5032862;28;20180;-73
2023/04/11 03:19:31;;;;;;;8.32;1.80;;;6.90;99.90;;;;;;5030449;28;20028;-73
2023/04/11 03:22:00;;;;;;;6.88;1.92;;;6.90;99.90;;;;;;5032674;28;20116;-72
2023/04/11 03:24:25;;;;;;;5.10;1.52;;;6.90;99.90;;;;;;5033340;28;20045;-74
2023/04/11 03:26:51;;;;;;;6.63;1.55;;;6.80;99.90;;;;;;5033520;28;20021;-71
2023/04/11 03:29:16;;;;;;;6.65;1.90;;;6.80;99.90;;;;;;5033041;28;20037;-73
2023/04/11 03:31:42;;;;;;;8.85;1.85;;;6.80;99.90;;;;;;5030142;28;20033;-72
2023/04/11 03:34:08;;;;;;;5.40;1.60;;;6.80;99.90;;;;;;5031311;28;20028;-71
2023/04/11 03:36:33;;;;;;;6.75;1.90;;;6.70;99.90;;;;;;5032031;28;20037;-73
2023/04/11 03:38:59;;;;;;;9.10;1.58;;;6.70;99.90;;;;;;5033534;28;20026;-75
2023/04/11 03:41:24;;;;;;;4.65;1.67;;;6.70;99.90;;;;;;5034044;28;20104;-75
2023/04/11 03:43:50;;;;;;;6.18;2.10;;;6.70;99.90;;;;;;5033650;28;20079;-74
2023/04/11 03:46:16;;;;;;;7.10;1.95;;;6.60;99.90;;;;;;5032548;28;20038;-75
2023/04/11 03:48:41;;;;;;;7.45;1.90;;;6.70;99.90;;;;;;5033959;28;20036;-73
2023/04/11 03:51:07;;;;;;;8.90;1.70;;;6.70;99.90;;;;;;5033380;28;20490;-73
2023/04/11 03:53:32;;;;;;;7.80;2.08;;;6.60;99.90;;;;;;5033308;28;20045;-74
2023/04/11 03:55:58;;;;;;;10.45;2.20;;;6.60;99.90;;;;;;5031931;28;20065;-73
2023/04/11 03:58:24;;;;;;;7.32;1.70;;;6.70;99.90;;;;;;5032997;28;20026;-76
2023/04/11 04:00:49;;;;;;;7.60;2.00;;;6.60;99.90;;;;;;5033149;28;20021;-75
2023/04/11 04:03:15;;;;;;;16.02;2.83;;;6.50;99.90;;;;;;5033322;28;20029;-74
2023/04/11 04:05:41;;;;;;;10.95;2.10;;;6.60;99.90;;;;;;5033265;28;20020;-73
2023/04/11 04:08:06;;;;;;;6.10;2.58;;;6.60;99.90;;;;;;5033067;28;20036;-74
2023/04/11 04:10:32;;;;;;;10.07;2.58;;;6.60;99.90;;;;;;5032964;28;20034;-73
2023/04/11 04:12:58;;;;;;;12.65;2.38;;;6.60;99.90;;;;;;5033691;28;20060;-75
2023/04/11 04:15:24;;;;;;;9.27;2.42;;;6.70;99.90;;;;;;5033407;28;20422;-74
2023/04/11 04:17:50;;;;;;;20.05;2.85;;;6.80;99.90;;;;;;5032212;28;20093;-73
2023/04/11 04:20:16;;;;;;;8.75;2.50;;;6.70;99.90;;;;;;5032886;28;20048;-75
2023/04/11 04:22:41;;;;;;;11.00;2.85;;;6.70;99.90;;;;;;5033714;28;20025;-75
2023/04/11 04:25:11;;;;;;;15.25;2.70;;;6.70;99.90;;;;;;5032228;28;20026;-74
2023/04/11 04:27:43;;;;;;;12.25;2.75;;;6.80;99.90;;;;;;5033277;28;20022;-75
2023/04/11 04:30:14;;;;;;;14.63;2.88;;;6.80;99.90;;;;;;5033514;28;20029;-74
2023/04/11 04:32:42;;;;;;;14.57;2.90;;;6.80;99.90;;;;;;5031431;28;20050;-72
2023/04/11 04:35:09;;;;;;;9.65;2.55;;;6.90;99.90;;;;;;5031437;28;20030;-71
2023/04/11 04:37:38;;;;;;;15.88;2.75;;;6.90;99.90;;;;;;5033476;28;20100;-71
2023/04/11 04:40:07;;;;;;;11.70;3.03;;;6.90;99.90;;;;;;5032488;28;20390;-71
2023/04/11 04:42:34;;;;;;;13.75;2.95;;;6.90;99.90;;;;;;5032536;28;20057;-72
2023/04/11 04:45:00;;;;;;;15.38;3.38;;;7.00;99.90;;;;;;5031780;28;20060;-74
2023/04/11 04:47:32;;;;;;;9.43;2.70;;;6.90;99.90;;;;;;5033040;28;20053;-72
2023/04/11 04:49:58;;;;;;;12.18;2.95;;;6.90;99.90;;;;;;5033243;28;20136;-74
2023/04/11 04:52:26;;;;;;;11.32;2.90;;;7.00;99.90;;;;;;5028993;28;20070;-71
2023/04/11 04:54:52;;;;;;;13.18;3.33;;;6.90;99.90;;;;;;5029181;28;20057;-70
2023/04/11 04:57:18;;;;;;;13.43;3.25;;;6.90;99.90;;;;;;5033113;28;20026;-70
2023/04/11 04:59:44;;;;;;;10.18;3.22;;;7.00;99.90;;;;;;5030965;28;20037;-71
2023/04/11 05:02:10;;;;;;;18.27;3.17;;;7.00;99.90;;;;;;5031343;28;20063;-69
2023/04/11 05:04:35;;;;;;;16.23;3.90;;;7.00;99.90;;;;;;5032783;28;20025;-68
2023/04/11 05:07:01;;;;;;;18.70;3.75;;;7.00;99.90;;;;;;5031755;28;20034;-71
2023/04/11 05:09:27;;;;;;;19.42;3.33;;;7.00;99.90;;;;;;5025859;28;20045;-71
2023/04/11 05:11:52;;;;;;;21.55;5.68;;;7.00;99.90;;;;;;5027137;28;20041;-70
2023/04/11 05:14:18;;;;;;;12.95;4.07;;;7.00;99.90;;;;;;5031616;28;20033;-68
2023/04/11 05:16:43;;;;;;;14.95;5.57;;;7.10;99.90;;;;;;5032716;28;20163;-69
2023/04/11 05:19:09;;;;;;;14.55;5.03;;;7.10;99.90;;;;;;5032836;28;20087;-69
2023/04/11 05:21:36;;;;;;;17.60;5.30;;;7.10;99.90;;;;;;5031789;28;20034;-67
2023/04/11 05:24:02;;;;;;;18.35;4.88;;;7.00;99.90;;;;;;5031149;28;20042;-70
2023/04/11 05:26:27;;;;;;;16.60;4.65;;;7.00;99.90;;;;;;5031295;28;20028;-70
2023/04/11 05:28:53;;;;;;;17.88;4.88;;;7.00;99.90;;;;;;5030955;28;20065;-70
2023/04/11 05:31:18;;;;;;;20.45;4.32;;;7.00;99.90;;;;;;5030606;28;20064;-70
2023/04/11 05:33:44;;;;;;;14.85;4.07;;;7.00;99.90;;;;;;5031288;28;20058;-70
2023/04/11 05:36:13;;;;;;;15.70;4.20;;;6.90;99.90;;;;;;5031965;28;20024;-69
2023/04/11 05:38:42;;;;;;;12.98;3.28;;;7.00;99.90;;;;;;5028573;28;20026;-67
2023/04/11 05:41:09;;;;;;;13.90;3.00;;;6.90;99.90;;;;;;5032287;28;20450;-69
2023/04/11 05:43:35;;;;;;;10.07;3.00;;;7.00;99.90;;;;;;5030848;28;20029;-69
2023/04/11 05:46:01;;;;;;;14.85;3.47;;;7.00;99.90;;;;;;5032256;28;20030;-69
2023/04/11 05:48:27;;;;;;;11.55;3.08;;;6.90;99.90;;;;;;5032001;28;20116;-67
2023/04/11 05:50:52;;;;;;;12.23;3.00;;;7.00;99.90;;;;;;5030520;28;20021;-69
2023/04/11 05:53:18;;;;;;;7.50;2.78;;;7.00;99.90;;;;;;5029997;28;20037;-68
2023/04/11 05:55:44;;;;;;;9.60;2.28;;;7.00;99.90;;;;;;5026592;28;20036;-70
2023/04/11 05:58:10;;;;;;;5.95;1.98;;;6.90;99.90;;;;;;5023623;28;20030;-69
2023/04/11 06:00:37;;;;;;;6.13;2.30;;;7.00;99.90;;;;;;5015948;28;20034;-70
2023/04/11 06:03:04;;;;;;;8.32;2.08;;;6.90;99.90;;;;;;5030121;28;20021;-70
2023/04/11 06:05:30;;;;;;;7.78;2.25;;;6.90;99.90;;;;;;5029349;28;20104;-70
2023/04/11 06:08:00;;;;;;;6.15;2.00;;;7.00;99.90;;;;;;5029675;28;20025;-69
2023/04/11 06:10:26;;;;;;;7.63;2.22;;;7.00;99.90;;;;;;5030915;28;20030;-70
2023/04/11 06:12:52;;;;;;;5.38;2.17;;;7.00;99.90;;;;;;5030297;28;20030;-70
2023/04/11 06:15:19;;;;;;;4.35;2.40;;;7.10;99.90;;;;;;5030794;28;20029;-70
2023/04/11 06:17:44;;;;;;;11.45;2.50;;;7.10;99.90;;;;;;5031313;28;20099;-69
2023/04/11 06:20:10;;;;;;;5.97;2.65;;;7.10;99.90;;;;;;5031605;28;20030;-70
2023/04/11 06:22:38;;;;;;;9.30;3.53;;;7.10;99.90;;;;;;5033860;28;20106;-70
2023/04/11 06:25:07;;;;;;;10.10;2.65;;;7.10;99.90;;;;;;5034517;28;20026;-70
2023/04/11 06:27:33;;;;;;;11.15;3.17;;;7.20;99.90;;;;;;5035705;28;20037;-70
2023/04/11 06:29:58;;;;;;;9.40;3.10;;;7.20;99.90;;;;;;5035656;28;20025;-70
2023/04/11 06:32:24;;;;;;;9.02;3.33;;;7.20;99.90;;;;;;5033898;28;20037;-70
2023/04/11 06:34:50;;;;;;;9.05;3.47;;;7.20;99.90;;;;;;5030704;28;20026;-70
2023/04/11 06:37:16;;;;;;;12.20;3.80;;;7.30;99.90;;;;;;5035522;28;20474;-72
2023/04/11 06:39:42;;;;;;;12.60;4.03;;;7.30;99.90;;;;;;5035561;28;20048;-71
2023/04/11 06:42:08;;;;;;;14.63;4.20;;;7.40;99.90;;;;;;5034867;28;20036;-70
2023/04/11 06:44:33;;;;;;;15.70;4.78;;;7.40;99.90;;;;;;5029684;28;20034;-72
2023/04/11 06:46:59;;;;;;;15.30;4.90;;;7.40;99.90;;;;;;5032291;28;20060;-73
2023/04/11 06:49:26;;;;;;;18.17;5.32;;;7.50;99.90;;;;;;5032760;28;20036;-72
2023/04/11 06:51:53;;;;;;;18.42;5.38;;;7.50;99.90;;;;;;5034796;28;20037;-69
2023/04/11 06:54:19;;;;;;;20.75;5.88;;;7.50;99.90;;;;;;5030477;28;20026;-68
2023/04/11 06:56:46;;;;;;;18.95;5.80;;;7.50;99.90;;;;;;5035034;28;20124;-69
2023/04/11 06:59:12;;;;;;;22.60;6.68;;;7.50;99.90;;;;;;5033623;28;20028;-70
2023/04/11 07:01:38;;;;;;;20.50;7.28;;;7.50;99.90;;;;;;5033347;28;20389;-68
2023/04/11 07:04:05;;;;;;;21.80;6.65;;;7.50;99.90;;;;;;5032843;28;20459;-70
2023/04/11 07:06:30;;;;;;;24.27;7.25;;;7.60;99.90;;;;;;5034975;28;20018;-70
2023/04/11 07:08:57;;;;;;;29.02;7.43;;;7.60;99.90;;;;;;5034739;28;20708;-71
2023/04/11 07:11:22;;;;;;;28.13;6.97;;;7.70;99.90;;;;;;5034362;28;20426;-70
2023/04/11 07:13:51;;;;;;;18.88;7.20;;;7.80;99.90;;;;;;5033488;28;20073;-71
2023/04/11 07:16:16;;;;;;;19.40;6.65;;;7.90;99.90;;;;;;5034082;28;20092;-70
2023/04/11 07:18:42;;;;;;;23.02;6.65;;;7.90;99.90;;;;;;5034443;28;20033;-71
2023/04/11 07:21:15;;;;;;;15.23;4.78;;;8.00;99.90;;;;;;5034718;28;20032;-71
2023/04/11 07:23:41;;;;;;;19.15;6.88;;;8.00;99.90;;;;;;5034818;28;20034;-69
2023/04/11 07:26:09;;;;;;;19.90;7.15;;;8.10;99.90;;;;;;5034521;28;20021;-71
2023/04/11 07:28:39;;;;;;;21.45;6.85;;;8.20;99.90;;;;;;5033841;28;20024;-74
2023/04/11 07:31:06;;;;;;;21.50;7.13;;;8.40;99.90;;;;;;5034148;28;20021;-69
2023/04/11 07:33:38;;;;;;;20.15;6.50;;;8.40;99.90;;;;;;5033268;28;20041;-70
2023/04/11 07:36:05;;;;;;;22.20;7.13;;;8.50;99.90;;;;;;5034506;28;20017;-71
2023/04/11 07:38:32;;;;;;;17.95;6.63;;;8.50;99.90;;;;;;5032277;28;20025;-73
2023/04/11 07:41:02;;;;;;;18.08;6.70;;;8.40;99.90;;;;;;5034100;28;20105;-70
2023/04/11 07:43:28;;;;;;;16.85;5.93;;;8.40;99.90;;;;;;5034302;28;20097;-70
2023/04/11 07:45:55;;;;;;;25.33;5.93;;;8.30;99.90;;;;;;5031851;28;20018;-71
2023/04/11 07:48:22;;;;;;;23.88;6.45;;;8.30;99.90;;;;;;5032721;28;20085;-70
2023/04/11 07:50:47;;;;;;;19.23;6.60;;;8.40;99.90;;;;;;5033338;28;20018;-69
2023/04/11 07:53:13;;;;;;;19.73;6.70;;;8.40;99.90;;;;;;5034014;28;20111;-67
2023/04/11 07:55:39;;;;;;;21.88;6.60;;;8.20;99.90;;;;;;5032140;28;20026;-68
2023/04/11 07:58:05;;;;;;;31.00;7.43;;;8.20;99.90;;;;;;5026768;28;20037;-68
2023/04/11 08:00:34;;;;;;;30.23;7.45;;;8.20;99.90;;;;;;5033473;28;20033;-69
2023/04/11 08:03:09;;;;;;;29.83;7.60;;;8.10;99.90;;;;;;5033510;28;20048;-69
2023/04/11 08:05:36;;;;;;;21.98;6.93;;;8.10;99.90;;;;;;5033514;28;20052;-68
2023/04/11 08:08:02;;;;;;;25.15;6.63;;;8.10;99.90;;;;;;5033365;28;20018;-69
2023/04/11 08:10:28;;;;;;;16.00;4.20;;;8.00;99.90;;;;;;5033813;28;20018;-67
2023/04/11 08:12:54;;;;;;;10.75;3.55;;;7.90;99.90;;;;;;5031731;28;20049;-70
2023/04/11 08:15:20;;;;;;;11.65;3.85;;;7.70;99.90;;;;;;5023072;28;20037;-70
2023/04/11 08:17:48;;;;;;;4.18;2.13;;;7.50;99.90;;;;;;5027757;28;20029;-70
2023/04/11 08:20:14;;;;;;;9.23;2.42;;;7.40;99.90;;;;;;5029619;28;20049;-68
2023/04/11 08:22:43;;;;;;;6.00;2.20;;;7.20;99.90;;;;;;5031408;28;20033;-69
2023/04/11 08:25:10;;;;;;;3.90;2.40;;;6.90;99.90;;;;;;5032660;28;20055;-69
2023/04/11 08:27:36;;;;;;;11.52;3.10;;;7.00;99.90;;;;;;5029949;28;20025;-69
2023/04/11 08:30:03;;;;;;;13.18;3.72;;;6.90;99.90;;;;;;5032916;28;20120;-69
2023/04/11 08:32:29;;;;;;;8.20;2.63;;;7.00;99.90;;;;;;5031326;28;20041;-70
2023/04/11 08:34:54;;;;;;;6.75;2.08;;;7.00;99.90;;;;;;5031225;28;20034;-67
2023/04/11 08:37:20;;;;;;;6.05;2.20;;;6.90;99.90;;;;;;5034053;28;20037;-71
2023/04/11 08:39:45;;;;;;;7.45;2.60;;;6.80;99.90;;;;;;5032781;28;20037;-69
2023/04/11 08:42:24;;;;;;;7.43;2.58;;;6.80;99.90;;;;;;5032778;28;20040;-68
2023/04/11 08:45:01;;;;;;;5.25;2.38;;;6.90;99.90;;;;;;5033479;28;20026;-70
2023/04/11 08:47:27;;;;;;;6.13;2.05;;;6.80;99.90;;;;;;5030620;28;20029;-69
2023/04/11 08:49:53;;;;;;;8.32;2.22;;;6.80;99.90;;;;;;5029708;28;20090;-69
2023/04/11 08:52:20;;;;;;;6.88;2.40;;;6.80;99.90;;;;;;5031862;28;20050;-70
2023/04/11 08:54:46;;;;;;;7.00;2.40;;;6.80;99.90;;;;;;5033166;28;20076;-69
2023/04/11 08:57:26;;;;;;;8.10;2.10;;;6.80;99.90;;;;;;5031174;28;20037;-68
2023/04/11 08:59:54;;;;;;;8.73;2.38;;;6.80;99.90;;;;;;5029158;28;20025;-70
2023/04/11 09:02:20;;;;;;;7.25;2.63;;;6.90;99.90;;;;;;5033772;28;20143;-68
2023/04/11 09:04:46;;;;;;;7.38;2.92;;;6.80;99.90;;;;;;5032128;28;20042;-69
2023/04/11 09:07:12;;;;;;;8.38;2.20;;;6.80;99.90;;;;;;5033276;28;20047;-69
2023/04/11 09:09:38;;;;;;;9.45;2.17;;;6.80;99.90;;;;;;5029588;28;20120;-69
2023/04/11 09:12:04;;;;;;;11.50;2.95;;;6.60;99.90;;;;;;5031554;28;20079;-71
2023/04/11 09:14:30;;;;;;;8.07;2.80;;;6.70;99.90;;;;;;5030825;28;20056;-68
2023/04/11 09:17:01;;;;;;;9.82;3.33;;;6.70;99.90;;;;;;5032766;28;20014;-71
2023/04/11 09:19:29;;;;;;;4.72;2.45;;;6.70;99.90;;;;;;5031066;28;20057;-68
2023/04/11 09:21:59;;;;;;;11.55;3.00;;;6.70;99.90;;;;;;5030328;28;20018;-69
2023/04/11 09:24:25;;;;;;;12.65;3.28;;;6.60;99.90;;;;;;5032491;28;20056;-68
2023/04/11 09:27:15;;;;;;;8.82;3.35;;;6.70;99.90;;;;;;5030206;28;20030;-70
2023/04/11 09:29:45;;;;;;;10.95;3.53;;;6.60;99.90;;;;;;5033061;28;20719;-70
2023/04/11 09:32:33;;;;;;;17.40;4.35;;;6.80;99.90;;;;;;5031826;28;20065;-68
2023/04/11 09:35:09;;;;;;;10.63;4.72;;;6.80;99.90;;;;;;5032196;28;20041;-69
2023/04/11 09:37:51;;;;;;;11.90;4.10;;;6.90;99.90;;;;;;5031120;28;20072;-69
2023/04/11 09:40:18;;;;;;;14.25;5.00;;;7.00;99.90;;;;;;5030292;28;20036;-69
2023/04/11 09:42:45;;;;;;;15.80;4.82;;;7.20;99.90;;;;;;5031926;28;20021;-69
2023/04/11 09:45:23;;;;;;;12.85;4.80;;;7.30;99.90;;;;;;5030679;28;20048;-68
2023/04/11 09:47:51;;;;;;;15.32;4.60;;;7.60;99.90;;;;;;5029778;28;20065;-70
2023/04/11 09:50:17;;;;;;;15.23;4.50;;;7.80;99.90;;;;;;5025831;28;20093;-69
2023/04/11 09:52:44;;;;;;;12.00;4.10;;;8.10;99.90;;;;;;5025648;28;20080;-69
2023/04/11 09:55:12;;;;;;;13.07;5.20;;;8.30;99.90;;;;;;5027827;28;20034;-67
2023/04/11 09:57:47;;;;;;;15.90;5.82;;;8.60;99.90;;;;;;5029974;28;20022;-69
2023/04/11 10:00:23;;;;;;;10.88;4.93;;;9.00;99.90;;;;;;5029650;28;20042;-72
2023/04/11 10:02:51;;;;;;;16.42;5.57;;;9.30;99.90;;;;;;5027577;28;20026;-70
2023/04/11 10:05:25;;;;;;;14.00;5.93;;;9.40;99.90;;;;;;5026797;28;20025;-69
2023/04/11 10:08:04;;;;;;;14.57;5.50;;;9.50;99.90;;;;;;5030987;28;20033;-72
2023/04/11 10:10:31;;;;;;;13.43;6.30;;;9.40;99.90;;;;;;5029307;28;20187;-72
2023/04/11 10:12:57;;;;;;;13.82;5.32;;;9.30;99.90;;;;;;5030147;28;20050;-70
2023/04/11 10:15:23;;;;;;;22.48;6.60;;;9.20;99.90;;;;;;5031748;28;20052;-70
2023/04/11 10:18:07;;;;;;;14.38;4.97;;;9.00;99.90;;;;;;5032061;28;20029;-70
2023/04/11 10:20:39;;;;;;;13.90;4.82;;;8.90;99.90;;;;;;5028886;28;20037;-70
2023/04/11 10:23:05;;;;;;;16.60;4.65;;;8.70;99.90;;;;;;5031162;28;20027;-70
2023/04/11 10:25:46;;;;;;;16.38;4.35;;;8.50;99.90;;;;;;5031441;28;20040;-69
2023/04/11 10:28:32;;;;;;;9.23;3.58;;;8.30;99.90;;;;;;5029952;28;20056;-70
2023/04/11 10:31:03;;;;;;;17.08;4.35;;;7.70;99.90;;;;;;5031241;28;20084;-71
2023/04/11 10:33:29;;;;;;;11.02;4.32;;;7.50;99.90;;;;;;5030224;28;20041;-71
2023/04/11 10:36:11;;;;;;;10.00;4.45;;;7.40;99.90;;;;;;5028122;28;20036;-70
2023/04/11 10:38:42;;;;;;;13.82;4.00;;;7.50;99.90;;;;;;5029286;28;20025;-72
2023/04/11 10:41:30;;;;;;;15.35;4.78;;;7.80;99.90;;;;;;5030656;28;20030;-69
2023/04/11 10:44:16;;;;;;;8.68;3.05;;;8.10;99.90;;;;;;5029990;28;20494;-70
2023/04/11 10:46:50;;;;;;;14.07;3.78;;;8.40;99.90;;;;;;5030156;28;20049;-70
2023/04/11 10:49:33;;;;;;;12.27;3.35;;;8.80;99.90;;;;;;5031482;28;20052;-68
2023/04/11 10:52:20;;;;;;;14.13;4.13;;;9.10;99.90;;;;;;5030062;28;20057;-71
2023/04/11 10:54:46;;;;;;;14.52;3.63;;;9.30;99.90;;;;;;5030562;28;20584;-68
2023/04/11 10:57:11;;;;;;;14.07;3.53;;;9.30;99.90;;;;;;5030324;28;20021;-71
2023/04/11 10:59:37;;;;;;;13.32;3.05;;;9.20;99.90;;;;;;5031206;28;20467;-69
2023/04/11 11:02:02;;;;;;;10.75;3.33;;;9.10;99.90;;;;;;5028887;28;20093;-72
2023/04/11 11:04:38;;;;;;;14.48;2.95;;;9.20;99.90;;;;;;5030067;28;20014;-69
2023/04/11 11:07:06;;;;;;;10.15;2.92;;;9.30;99.90;;;;;;5030661;28;20372;-70
2023/04/11 11:09:32;;;;;;;12.77;3.28;;;9.50;99.90;;;;;;5030337;28;20073;-69
2023/04/11 11:12:08;;;;;;;12.10;3.05;;;9.90;99.90;;;;;;5032710;28;20068;-71
2023/04/11 11:14:34;;;;;;;17.67;3.55;;;10.10;99.90;;;;;;5032387;28;20463;-72
2023/04/11 11:17:00;;;;;;;10.70;2.88;;;10.20;99.90;;;;;;5030595;28;20033;-69
2023/04/11 11:19:26;;;;;;;14.18;2.95;;;10.30;99.90;;;;;;5032892;28;20022;-70
2023/04/11 11:21:52;;;;;;;13.00;3.42;;;10.30;99.90;;;;;;5031697;28;20030;-71
2023/04/11 11:24:25;;;;;;;16.00;3.55;;;10.20;99.90;;;;;;5032149;28;20085;-71
2023/04/11 11:26:52;;;;;;;17.08;4.45;;;9.90;99.90;;;;;;5031878;28;20028;-71
2023/04/11 11:29:33;;;;;;;15.98;3.90;;;9.70;99.90;;;;;;5033524;28;20021;-69
2023/04/11 11:32:00;;;;;;;6.95;2.30;;;9.40;99.90;;;;;;5033310;28;20022;-71
2023/04/11 11:34:30;;;;;;;7.70;1.98;;;9.10;99.90;;;;;;5033815;28;20021;-72
2023/04/11 11:36:56;;;;;;;7.57;1.95;;;8.80;99.90;;;;;;5032758;28;20029;-72
2023/04/11 11:39:22;;;;;;;4.50;1.27;;;8.60;99.90;;;;;;5031917;28;20025;-70
2023/04/11 11:41:49;;;;;;;5.93;2.00;;;8.40;99.90;;;;;;5032289;28;20368;-69
2023/04/11 11:44:27;;;;;;;5.55;1.65;;;8.30;99.90;;;;;;5033622;28;20082;-72
2023/04/11 11:47:04;;;;;;;6.78;2.00;;;8.20;99.90;;;;;;5033191;28;20121;-71
2023/04/11 11:50:04;;;;;;;7.65;1.98;;;8.20;99.90;;;;;;5033741;28;20067;-70
2023/04/11 11:52:32;;;;;;;7.65;2.10;;;8.10;99.90;;;;;;5033460;28;20030;-72
2023/04/11 11:54:58;;;;;;;11.80;2.13;;;8.20;99.90;;;;;;5033485;28;20041;-72
2023/04/11 11:57:23;;;;;;;8.70;2.40;;;8.20;99.90;;;;;;5033337;28;20033;-71
2023/04/11 11:59:57;;;;;;;7.03;1.80;;;8.30;99.90;;;;;;5030881;28;20041;-70
2023/04/11 12:02:26;;;;;;;6.20;1.63;;;8.40;99.90;;;;;;5032647;28;20021;-69
2023/04/11 12:04:59;;;;;;;5.43;1.75;;;8.50;99.90;;;;;;5033090;28;20033;-70
2023/04/11 12:07:25;;;;;;;4.50;1.73;;;9.00;99.90;;;;;;5033097;28;20068;-69
2023/04/11 12:10:08;;;;;;;5.95;1.33;;;9.50;99.90;;;;;;5033131;28;20077;-70
2023/04/11 12:12:37;;;;;;;8.10;1.48;;;10.10;99.90;;;;;;5032764;28;20101;-69
2023/04/11 12:15:13;;;;;;;5.85;1.50;;;10.50;99.90;;;;;;5032657;28;20356;-69
2023/04/11 12:17:39;;;;;;;5.88;1.40;;;10.80;99.90;;;;;;5031105;28;20022;-69
2023/04/11 12:20:06;;;;;;;7.20;1.70;;;11.20;99.90;;;;;;5032127;28;20022;-69
2023/04/11 12:22:32;;;;;;;6.15;1.55;;;11.50;99.90;;;;;;5030753;28;20026;-68
2023/04/11 12:25:05;;;;;;;7.00;1.50;;;11.70;99.90;;;;;;5032870;28;20029;-70
2023/04/11 12:27:33;;;;;;;9.05;1.50;;;11.70;99.90;;;;;;5032903;28;20025;-71
2023/04/11 12:29:59;;;;;;;7.25;1.67;;;11.50;99.90;;;;;;5030880;28;20030;-70
2023/04/11 12:32:26;;;;;;;5.47;1.50;;;11.10;99.90;;;;;;5032628;28;20087;-71
2023/04/11 12:34:53;;;;;;;3.08;0.60;;;10.70;99.90;;;;;;5031761;28;20033;-71
2023/04/11 12:37:19;;;;;;;6.70;1.17;;;10.10;99.90;;;;;;5032352;28;20041;-69
2023/04/11 12:39:45;;;;;;;5.20;1.10;;;9.60;99.90;;;;;;5032543;28;20034;-70
2023/04/11 12:42:11;;;;;;;4.82;1.20;;;9.30;99.90;;;;;;5032566;28;20437;-69
2023/04/11 12:44:36;;;;;;;2.15;1.00;;;9.40;99.90;;;;;;5032129;28;20025;-72
2023/04/11 12:47:02;;;;;;;3.25;1.00;;;9.50;99.90;;;;;;5031958;28;20033;-69
2023/04/11 12:49:27;;;;;;;4.43;1.00;;;9.70;99.90;;;;;;5021719;28;20065;-72
2023/04/11 12:51:56;;;;;;;4.72;1.33;;;9.90;99.90;;;;;;5030397;28;20039;-71
2023/04/11 12:54:22;;;;;;;7.90;1.38;;;10.10;99.90;;;;;;5030630;28;20034;-69